Etusivu
METAR-TAF:

METAR-TAF

Lentoasemat :

Fort Hood / Killeen, Texas, Yhdysvallat

Leveyspiiri: 31-06N, Pituuspiiri: 097-20W, korkeus merenpinnasta: 283 m

Tämänhetkinen sää

Tämä raportti tehtiin 49 minuuttia sitten, kello 04.08 UTC
Tuuli 5 kn etelästä
Lämpötila 15°C
Kosteus 88%
Ilmanpaine 1017 hPa
Näkyvyys: 11.3 km
Pilvistä 900 ft:n korkeudessa

METAR: KHLR 260408Z AUTO 17005KT 7SM OVC009 15/13 A3002 RMK AO2 SLP162

Aika: 21:57 (04:57 UTC)


TAF: puuttuu

Säähavainnot ja -ennusteet yli 4000 lentoasemalta (METAR- ja TAF-raportit).

Käytössä olevat sääasemat on merkitty karttaan keltaisilla ja punaisilla pisteillä.

Aseta hiiri pisteen päälle nähdäksesi sääaseman nimen.

Klikkaa sitten nähdäksesi säähavainnot ja -ennusteet.

Kartan vaihtaminen: klikkaa mustalla rastilla varustettuja vihreitä pisteitä, niin voit zoomata sisään; viivalla varustettua vihreää pistettä, niin voit zoomata ulos tai vihreitä nuolia, niin pääset viereisille kartoille.


METAR-TAF: